Time;durP1;ratioP1;P1;durP2;ratioP2;P2;SDS_P1;SDS_P2;PMS_P1;PMS_P2;Temp;Humidity;BMP_temperature;BMP_pressure;BME280_temperature;BME280_humidity;BME280_pressure;Samples;Min_cycle;Max_cycle;Signal;HPM_P1;HPM_P2
2020/12/20 00:01:48;;;;;;;12.88;7.53;;;;;;;5.22;77.61;99179.13;4975954;28;20023;-69
2020/12/20 00:04:14;;;;;;;14.68;7.32;;;;;;;5.24;77.51;99177.44;4965029;28;20499;-69
2020/12/20 00:06:41;;;;;;;14.23;8.35;;;;;;;5.22;77.50;99174.00;4966932;28;20034;-69
2020/12/20 00:09:19;;;;;;;10.80;7.70;;;;;;;5.24;77.82;99167.16;4957857;28;20106;-69
2020/12/20 00:11:46;;;;;;;13.57;7.88;;;;;;;5.18;77.58;99172.25;4959467;28;20027;-69
2020/12/20 00:14:28;;;;;;;13.75;8.57;;;;;;;5.19;77.77;99173.97;4965013;28;20071;-70
2020/12/20 00:16:58;;;;;;;13.70;8.25;;;;;;;5.21;78.08;99171.38;4955063;28;20102;-69
2020/12/20 00:19:23;;;;;;;13.10;8.02;;;;;;;5.19;78.07;99168.81;4970960;28;20127;-70
2020/12/20 00:21:57;;;;;;;12.93;7.97;;;;;;;5.24;78.03;99162.00;4961145;28;20058;-70
2020/12/20 00:24:23;;;;;;;18.40;8.70;;;;;;;5.14;78.44;99167.91;4963398;28;20027;-70
2020/12/20 00:26:50;;;;;;;15.05;7.65;;;;;;;5.21;77.97;99173.97;4967859;28;20077;-70
2020/12/20 00:29:15;;;;;;;14.88;8.38;;;;;;;5.17;78.27;99175.63;4956829;28;20042;-70
2020/12/20 00:31:41;;;;;;;12.13;7.53;;;;;;;5.13;78.75;99168.75;4967609;28;20106;-70
2020/12/20 00:34:07;;;;;;;14.32;7.80;;;;;;;5.11;78.50;99166.16;4954883;28;20038;-70
2020/12/20 00:36:33;;;;;;;12.20;7.50;;;;;;;5.08;78.78;99170.44;4966958;28;20098;-70
2020/12/20 00:38:58;;;;;;;12.20;7.97;;;;;;;5.09;78.71;99161.88;4958330;28;20031;-70
2020/12/20 00:41:24;;;;;;;14.10;7.80;;;;;;;5.08;78.89;99165.28;4970140;28;20023;-70
2020/12/20 00:43:49;;;;;;;14.32;7.93;;;;;;;5.05;79.05;99162.69;4960841;28;20033;-69
2020/12/20 00:46:15;;;;;;;13.60;8.05;;;;;;;5.09;79.01;99169.56;4963901;28;20054;-69
2020/12/20 00:48:40;;;;;;;11.95;7.80;;;;;;;5.13;78.74;99166.19;4954495;28;20031;-69
2020/12/20 00:51:06;;;;;;;12.43;7.72;;;;;;;5.15;78.24;99161.94;4970395;28;20026;-69
2020/12/20 00:53:32;;;;;;;11.77;7.15;;;;;;;5.22;78.48;99167.97;4954353;28;20063;-69
2020/12/20 00:55:57;;;;;;;14.98;7.68;;;;;;;5.21;78.36;99167.09;4961765;28;20109;-69
2020/12/20 00:58:23;;;;;;;10.50;7.18;;;;;;;5.17;78.50;99165.34;4962735;28;20038;-70
2020/12/20 08:01:05;;;;;;;9.02;6.05;;;;;;;5.25;77.31;99204.84;5715396;23;20047;-68
2020/12/20 08:03:32;;;;;;;9.05;6.07;;;;;;;5.36;77.19;99199.78;4955506;29;20126;-68
2020/12/20 08:06:23;;;;;;;8.38;6.25;;;;;;;5.47;76.51;99210.19;4955558;29;20031;-69
2020/12/20 08:08:49;;;;;;;9.55;6.18;;;;;;;5.72;75.89;99211.28;4952618;28;20047;-69
2020/12/20 08:11:26;;;;;;;8.63;5.90;;;;;;;5.71;75.82;99210.41;4955313;28;20042;-69
2020/12/20 08:14:13;;;;;;;7.65;6.30;;;;;;;5.79;74.82;99219.03;4955776;29;20031;-69
2020/12/20 08:16:43;;;;;;;10.23;6.07;;;;;;;5.78;74.76;99219.88;4954694;28;20082;-69
2020/12/20 08:19:14;;;;;;;;;;;;;;;5.76;74.93;99218.16;4955787;29;20086;-69
2020/12/20 08:21:53;;;;;;;6.97;5.65;;;;;;;5.69;74.89;99217.22;4937917;29;19961;-69
2020/12/20 08:24:27;;;;;;;8.88;6.63;;;;;;;5.83;74.85;99213.06;4955193;29;20480;-69
2020/12/20 08:26:53;;;;;;;8.40;5.97;;;;;;;5.98;74.05;99208.94;4955100;29;20106;-69
2020/12/20 08:29:19;;;;;;;7.88;6.07;;;;;;;6.18;73.66;99213.34;4955257;29;20118;-69
2020/12/20 08:31:46;;;;;;;10.73;6.13;;;;;;;6.41;72.72;99215.22;4955041;28;20027;-69
2020/12/20 08:34:20;;;;;;;7.70;6.03;;;;;;;6.55;72.12;99213.56;4955214;29;20046;-69
2020/12/20 08:36:47;;;;;;;10.15;5.63;;;;;;;6.81;71.46;99211.09;4954996;29;20015;-69
2020/12/20 08:39:13;;;;;;;8.02;5.32;;;;;;;6.76;71.06;99211.94;4954797;29;20065;-69
2020/12/20 08:41:39;;;;;;;7.95;5.75;;;;;;;6.90;70.42;99211.16;4937533;29;20019;-69
2020/12/20 08:44:10;;;;;;;9.23;5.60;;;;;;;6.73;70.78;99212.81;4954869;29;20035;-69
2020/12/20 08:46:38;;;;;;;13.98;6.18;;;;;;;6.77;70.78;99208.50;4954826;29;20024;-68
2020/12/20 08:49:22;;;;;;;9.38;5.93;;;;;;;7.09;70.13;99216.38;4954903;29;20110;-68
2020/12/20 08:51:49;;;;;;;12.48;6.00;;;;;;;6.98;70.67;99210.34;4954620;28;20027;-69
2020/12/20 08:54:27;;;;;;;8.00;5.30;;;;;;;6.88;70.47;99210.28;4954755;29;20038;-69
2020/12/20 08:56:54;;;;;;;9.98;5.68;;;;;;;7.07;70.09;99218.94;4954870;29;20086;-69
2020/12/20 08:59:38;;;;;;;9.38;6.20;;;;;;;7.45;69.09;99213.88;4954797;29;20042;-69
2020/12/20 09:02:04;;;;;;;8.85;6.43;;;;;;;8.01;67.12;99221.63;4954202;28;20046;-69
2020/12/20 09:04:32;;;;;;;11.38;5.78;;;;;;;7.80;66.79;99215.63;4954712;29;20408;-69
2020/12/20 09:06:59;;;;;;;10.73;6.25;;;;;;;7.77;67.28;99218.19;4954508;29;20027;-69
2020/12/20 09:09:26;;;;;;;8.43;5.53;;;;;;;7.69;67.31;99219.94;4937241;29;20101;-68
2020/12/20 09:11:51;;;;;;;13.95;5.78;;;;;;;7.45;68.44;99221.63;4954073;28;20031;-68
2020/12/20 09:14:17;;;;;;;7.80;5.63;;;;;;;7.10;69.81;99228.38;4954327;29;20081;-69
2020/12/20 09:16:45;;;;;;;13.15;6.30;;;;;;;6.88;70.65;99212.88;4937299;29;20082;-69
2020/12/20 09:19:14;;;;;;;6.13;5.35;;;;;;;6.76;71.05;99223.09;4937128;29;20481;-69
2020/12/20 09:21:40;;;;;;;10.57;6.70;;;;;;;6.78;71.33;99216.25;4953875;28;20495;-69
2020/12/20 09:24:05;;;;;;;9.05;6.30;;;;;;;6.68;71.15;99219.66;4954198;29;20037;-69
2020/12/20 09:26:31;;;;;;;11.23;6.15;;;;;;;6.89;70.99;99224.88;4953838;29;20478;-69
2020/12/20 09:28:56;;;;;;;11.77;6.20;;;;;;;7.32;69.50;99211.28;4953609;28;20544;-69
2020/12/20 09:31:22;;;;;;;8.40;5.80;;;;;;;8.83;64.18;99211.16;4953588;28;20049;-69
2020/12/20 09:33:48;;;;;;;7.05;5.18;;;;;;;10.41;59.52;99203.16;4954002;29;20023;-69
2020/12/20 09:36:20;;;;;;;8.30;5.78;;;;;;;10.87;57.94;99200.03;4953685;29;20028;-69
2020/12/20 09:39:01;;;;;;;5.50;4.85;;;;;;;10.88;57.35;99204.34;4953989;29;20543;-69
2020/12/20 09:41:32;;;;;;;9.05;5.40;;;;;;;12.02;53.77;99194.03;4953435;28;20019;-69
2020/12/20 09:43:59;;;;;;;7.90;5.30;;;;;;;10.54;56.92;99215.09;4953916;29;20038;-69
2020/12/20 09:46:30;;;;;;;10.65;5.03;;;;;;;10.23;58.86;99203.28;4953463;29;20027;-69
2020/12/20 09:48:57;;;;;;;9.95;5.70;;;;;;;9.46;60.47;99206.50;4936594;29;20035;-69
2020/12/20 09:51:24;;;;;;;9.85;5.85;;;;;;;8.48;63.85;99214.72;4953410;28;20038;-69
2020/12/20 09:53:50;;;;;;;8.18;5.80;;;;;;;8.55;63.69;99209.53;4953562;29;20024;-68
2020/12/20 09:56:17;;;;;;;9.85;5.70;;;;;;;9.23;62.01;99203.19;4953297;29;20484;-68
2020/12/20 09:58:43;;;;;;;7.93;5.55;;;;;;;9.85;59.80;99201.91;4953704;29;20057;-68
2020/12/20 10:01:19;;;;;;;8.90;5.80;;;;;;;10.62;57.26;99196.00;4953009;28;20031;-68
2020/12/20 10:03:45;;;;;;;12.60;5.53;;;;;;;11.69;53.74;99199.75;4953447;29;20106;-69
2020/12/20 10:06:10;;;;;;;8.45;5.47;;;;;;;12.50;52.53;99201.81;4953163;29;20030;-69
2020/12/20 10:08:37;;;;;;;7.97;6.13;;;;;;;11.53;54.03;99199.13;4952700;29;20079;-69
2020/12/20 10:11:02;;;;;;;11.98;6.68;;;;;;;11.94;53.67;99195.91;4951970;28;20102;-70
2020/12/20 10:13:28;;;;;;;8.32;5.28;;;;;;;11.67;54.24;99206.72;4952928;29;20475;-69
2020/12/20 10:15:53;;;;;;;10.63;6.00;;;;;;;11.56;54.38;99205.13;4953217;29;20023;-69
2020/12/20 10:18:18;;;;;;;10.90;6.25;;;;;;;11.82;53.57;99202.16;4953203;29;20043;-69
2020/12/20 10:20:44;;;;;;;9.02;5.85;;;;;;;11.04;55.40;99205.88;4953014;28;20034;-69
2020/12/20 10:23:10;;;;;;;7.13;6.00;;;;;;;10.60;57.65;99197.78;4953126;29;20197;-69
2020/12/20 10:25:35;;;;;;;13.80;6.70;;;;;;;10.63;58.11;99195.13;4952723;29;20034;-69
2020/12/20 10:28:01;;;;;;;10.98;7.07;;;;;;;9.92;59.16;99202.72;4952827;29;20031;-69
2020/12/20 10:30:27;;;;;;;10.82;7.15;;;;;;;10.08;59.41;99203.44;4953112;28;20389;-69
2020/12/20 10:32:54;;;;;;;12.90;7.35;;;;;;;9.53;61.19;99215.09;4952593;29;20396;-69
2020/12/20 10:35:23;;;;;;;7.53;6.50;;;;;;;9.52;61.22;99214.25;4952784;29;20031;-69
2020/12/20 10:37:49;;;;;;;10.90;6.20;;;;;;;9.36;62.13;99209.16;4952698;29;20035;-69
2020/12/20 10:40:14;;;;;;;7.45;6.22;;;;;;;9.19;63.54;99207.56;4952051;28;20404;-70
2020/12/20 10:42:40;;;;;;;9.27;6.28;;;;;;;8.98;63.94;99216.25;4952845;29;20386;-72
2020/12/20 10:45:05;;;;;;;11.23;6.72;;;;;;;9.06;63.60;99207.63;4953008;29;20028;-69
2020/12/20 10:47:30;;;;;;;10.40;6.88;;;;;;;9.01;64.10;99210.22;4952812;29;20640;-70
2020/12/20 10:49:56;;;;;;;10.43;6.78;;;;;;;8.97;63.91;99204.19;4953233;29;20106;-69
2020/12/20 10:52:21;;;;;;;11.48;6.32;;;;;;;8.98;63.88;99199.88;4952574;28;20045;-70
2020/12/20 10:54:46;;;;;;;15.18;6.82;;;;;;;8.90;64.60;99207.69;4953075;29;20031;-69
2020/12/20 10:57:12;;;;;;;14.13;6.95;;;;;;;8.79;65.19;99208.59;4952791;29;20110;-69
2020/12/20 10:59:37;;;;;;;16.13;8.77;;;;;;;8.65;65.20;99212.06;4952690;29;20162;-69
2020/12/20 11:02:04;;;;;;;11.68;6.80;;;;;;;8.71;65.14;99206.06;4952495;28;20055;-70
2020/12/20 11:04:29;;;;;;;12.23;7.55;;;;;;;8.72;65.10;99207.75;4952687;29;20049;-70
2020/12/20 11:06:58;;;;;;;9.63;6.47;;;;;;;8.76;65.01;99204.31;4947563;29;20102;-70
2020/12/20 11:09:24;;;;;;;8.18;6.53;;;;;;;8.78;65.33;99202.56;4954366;28;20035;-70
2020/12/20 11:11:50;;;;;;;14.48;7.22;;;;;;;8.81;65.50;99210.31;4959484;28;20063;-69
2020/12/20 11:14:16;;;;;;;13.45;5.93;;;;;;;8.91;65.32;99203.38;4952854;28;20057;-68
2020/12/20 11:16:41;;;;;;;11.43;6.88;;;;;;;8.86;65.14;99197.38;4953366;28;20020;-69
2020/12/20 11:19:07;;;;;;;10.75;7.20;;;;;;;8.80;65.74;99200.84;4967419;28;20293;-69
2020/12/20 11:21:32;;;;;;;12.50;6.97;;;;;;;8.80;65.49;99203.44;4959845;28;20033;-69
2020/12/20 11:23:58;;;;;;;8.80;6.72;;;;;;;8.83;65.34;99200.81;4960479;28;20042;-70
2020/12/20 11:26:24;;;;;;;13.95;7.40;;;;;;;8.92;65.17;99197.34;4952269;29;20558;-70
2020/12/20 11:28:51;;;;;;;13.18;8.40;;;;;;;8.98;65.15;99195.56;4950946;28;20062;-69
2020/12/20 11:31:20;;;;;;;13.40;8.88;;;;;;;9.14;64.90;99195.53;4957680;28;20494;-70
2020/12/20 11:33:46;;;;;;;14.68;8.10;;;;;;;9.12;64.57;99197.25;4962272;28;20086;-69
2020/12/20 11:36:19;;;;;;;10.95;7.80;;;;;;;9.04;64.93;99199.00;4964786;28;20031;-69
2020/12/20 11:38:45;;;;;;;13.40;7.47;;;;;;;9.13;64.30;99193.78;4954005;28;20453;-69
2020/12/20 11:41:11;;;;;;;17.77;7.78;;;;;;;9.09;64.65;99194.66;4966205;28;20038;-69
2020/12/20 11:43:37;;;;;;;10.45;7.15;;;;;;;9.34;63.91;99193.69;4960137;28;20476;-69
2020/12/20 11:46:02;;;;;;;12.55;6.95;;;;;;;9.53;63.78;99195.25;4959597;28;20399;-69
2020/12/20 11:48:28;;;;;;;9.85;7.20;;;;;;;9.81;63.11;99189.00;4966839;28;20400;-69
2020/12/20 11:50:53;;;;;;;12.73;8.23;;;;;;;10.15;62.66;99189.56;4955032;28;20031;-69
2020/12/20 11:53:18;;;;;;;10.35;6.45;;;;;;;10.09;61.85;99181.84;4965532;28;20109;-69
2020/12/20 11:55:44;;;;;;;13.32;8.07;;;;;;;9.90;62.03;99187.19;4964963;28;20027;-70
2020/12/20 11:58:13;;;;;;;10.65;7.35;;;;;;;9.93;62.32;99179.41;4961692;28;20047;-70
2020/12/20 12:00:43;;;;;;;17.33;6.75;;;;;;;9.89;62.86;99185.47;4968455;28;20110;-70
2020/12/20 12:03:08;;;;;;;11.15;7.15;;;;;;;9.83;62.68;99177.78;4970274;28;20122;-70
2020/12/20 12:05:37;;;;;;;8.80;6.93;;;;;;;9.72;62.97;99179.63;4962490;28;20109;-70
2020/12/20 12:08:05;;;;;;;16.35;8.00;;;;;;;9.70;63.30;99181.34;4954909;28;20548;-70
2020/12/20 12:10:31;;;;;;;11.50;7.50;;;;;;;9.58;64.15;99177.13;4955029;28;20035;-69
2020/12/20 12:12:56;;;;;;;13.70;7.25;;;;;;;9.59;64.19;99170.22;4957602;28;20015;-69
2020/12/20 12:15:22;;;;;;;10.82;7.55;;;;;;;9.59;63.92;99175.41;4948863;29;20102;-69
2020/12/20 12:17:47;;;;;;;9.35;6.40;;;;;;;9.71;64.25;99172.69;4964724;28;20027;-69
2020/12/20 12:20:12;;;;;;;13.70;7.68;;;;;;;9.71;64.42;99177.88;4961399;28;20117;-69
2020/12/20 12:22:38;;;;;;;14.80;7.20;;;;;;;9.65;63.87;99173.59;4957584;28;20035;-69
2020/12/20 12:25:03;;;;;;;10.63;7.28;;;;;;;9.61;64.44;99176.22;4941656;28;20489;-70
2020/12/20 12:27:28;;;;;;;14.23;7.47;;;;;;;9.70;64.26;99168.41;4946593;29;20040;-70
2020/12/20 12:29:54;;;;;;;13.48;6.80;;;;;;;9.78;64.04;99161.44;4956639;28;20439;-71
2020/12/20 12:32:19;;;;;;;14.75;7.57;;;;;;;9.75;64.01;99171.81;4939478;28;20027;-70
2020/12/20 12:34:44;;;;;;;14.50;7.10;;;;;;;9.75;64.63;99158.88;4968780;28;20041;-69
2020/12/20 12:37:10;;;;;;;15.13;7.90;;;;;;;9.68;64.37;99167.56;4959401;28;20052;-70
2020/12/20 12:39:35;;;;;;;14.38;7.10;;;;;;;9.74;64.60;99151.97;4965848;28;20074;-70
2020/12/20 12:42:05;;;;;;;14.32;7.20;;;;;;;10.00;63.50;99155.16;4966094;28;20085;-70
2020/12/20 12:44:30;;;;;;;14.07;7.97;;;;;;;10.11;63.75;99162.00;4958554;28;20089;-69
2020/12/20 12:46:56;;;;;;;15.27;7.22;;;;;;;10.27;63.36;99159.25;4967763;28;20038;-70
2020/12/20 12:49:21;;;;;;;12.57;7.47;;;;;;;10.35;62.58;99156.59;4951714;28;20056;-70
2020/12/20 12:51:47;;;;;;;15.20;7.75;;;;;;;10.30;62.71;99163.56;4956499;28;20027;-70
2020/12/20 12:54:12;;;;;;;15.57;8.10;;;;;;;10.34;62.48;99160.03;4953749;29;20038;-69
2020/12/20 12:56:37;;;;;;;17.00;9.05;;;;;;;10.28;62.87;99165.28;4951337;28;20064;-72
2020/12/20 12:59:02;;;;;;;15.48;8.73;;;;;;;10.33;62.67;99179.06;4957185;28;20074;-68
2020/12/20 13:01:29;;;;;;;14.38;9.00;;;;;;;10.34;62.31;99180.75;4953941;28;20085;-70
2020/12/20 13:03:55;;;;;;;15.98;7.70;;;;;;;10.14;62.52;99173.16;4953582;28;20038;-69
2020/12/20 13:06:20;;;;;;;12.80;8.60;;;;;;;10.39;62.12;99173.78;4970125;28;20027;-69
2020/12/20 13:08:46;;;;;;;19.23;9.50;;;;;;;10.29;63.62;99172.19;4957843;28;20193;-69
2020/12/20 13:11:11;;;;;;;10.45;7.57;;;;;;;10.20;62.71;99177.41;4966540;28;20106;-71
2020/12/20 13:13:37;;;;;;;11.20;8.05;;;;;;;10.21;63.17;99179.16;4954245;29;20477;-75
2020/12/20 13:16:02;;;;;;;16.23;7.43;;;;;;;10.20;63.84;99180.00;4933872;29;20035;-70
2020/12/20 13:18:27;;;;;;;11.40;7.93;;;;;;;10.17;63.46;99188.69;4969337;28;20030;-71
2020/12/20 13:20:53;;;;;;;11.52;7.88;;;;;;;10.07;63.51;99186.19;4973428;28;20109;-73
2020/12/20 13:23:18;;;;;;;14.45;8.52;;;;;;;10.10;63.67;99186.16;4965182;28;20035;-74
2020/12/20 13:25:44;;;;;;;12.23;7.50;;;;;;;10.12;63.93;99194.78;4954233;29;20027;-73
2020/12/20 13:28:09;;;;;;;17.63;8.45;;;;;;;10.00;64.48;99188.81;4954069;29;20094;-73
2020/12/20 13:30:34;;;;;;;15.68;7.95;;;;;;;10.00;65.05;99190.56;4954068;29;20070;-74
2020/12/20 13:33:00;;;;;;;11.30;7.82;;;;;;;9.92;65.52;99193.22;4954045;29;20031;-71
2020/12/20 13:35:25;;;;;;;11.13;7.50;;;;;;;9.90;65.44;99187.19;4953972;29;20476;-72
2020/12/20 13:37:50;;;;;;;15.63;8.05;;;;;;;9.89;65.57;99198.44;4954028;29;20031;-70
2020/12/20 13:40:16;;;;;;;15.38;7.90;;;;;;;9.87;65.49;99184.66;4952498;29;20109;-72
2020/12/20 13:42:41;;;;;;;12.25;7.82;;;;;;;9.62;66.19;99186.59;4953772;29;20031;-71
2020/12/20 13:45:06;;;;;;;13.27;8.38;;;;;;;9.60;66.62;99190.91;4953910;29;20031;-71
2020/12/20 13:47:32;;;;;;;19.30;9.82;;;;;;;9.72;66.66;99195.13;4936564;29;20027;-72
2020/12/20 13:49:57;;;;;;;13.70;8.90;;;;;;;9.72;66.87;99195.13;4936575;29;20051;-72
2020/12/20 13:52:23;;;;;;;12.55;8.93;;;;;;;9.86;66.59;99198.44;4953687;29;20019;-71
2020/12/20 13:54:48;;;;;;;15.38;9.10;;;;;;;9.88;66.89;99193.28;4953589;29;20448;-73
2020/12/20 13:57:15;;;;;;;17.52;9.00;;;;;;;9.80;67.07;99190.72;4953618;29;20027;-70
2020/12/20 13:59:40;;;;;;;12.73;8.90;;;;;;;9.65;68.42;99190.88;4953376;29;20023;-72
2020/12/20 14:02:05;;;;;;;15.40;8.40;;;;;;;9.66;68.51;99192.56;4953150;29;20396;-73
2020/12/20 14:04:31;;;;;;;16.10;9.05;;;;;;;9.62;68.70;99193.47;4953415;29;20031;-71
2020/12/20 14:06:56;;;;;;;14.80;8.80;;;;;;;9.60;68.56;99205.56;4952082;28;20650;-71
2020/12/20 14:09:21;;;;;;;13.07;8.57;;;;;;;9.55;68.45;99207.31;4953533;29;20019;-74
2020/12/20 14:11:56;;;;;;;14.70;9.38;;;;;;;9.49;69.04;99209.09;4953068;29;20033;-73
2020/12/20 14:14:22;;;;;;;15.20;9.70;;;;;;;9.43;68.85;99206.53;4953209;28;20038;-73
2020/12/20 14:16:49;;;;;;;21.90;9.38;;;;;;;9.45;68.55;99211.69;4935968;28;20381;-70
2020/12/20 14:19:14;;;;;;;14.20;9.25;;;;;;;9.44;69.95;99216.00;4955360;28;20023;-70
2020/12/20 14:21:40;;;;;;;14.52;9.25;;;;;;;9.52;69.40;99227.19;4960848;28;20038;-70
2020/12/20 14:24:05;;;;;;;24.48;9.68;;;;;;;9.58;68.83;99239.22;4957526;28;20035;-71
2020/12/20 14:26:30;;;;;;;19.85;10.10;;;;;;;9.65;68.52;99240.03;4953245;29;20420;-70
2020/12/20 14:28:56;;;;;;;17.45;10.35;;;;;;;9.53;69.66;99241.81;4968736;28;20387;-71
2020/12/20 14:31:21;;;;;;;16.45;9.38;;;;;;;9.52;69.87;99239.22;4956986;28;20027;-71
2020/12/20 14:33:46;;;;;;;15.32;9.18;;;;;;;9.50;69.76;99236.66;4964839;28;20026;-70
2020/12/20 14:36:12;;;;;;;13.88;9.45;;;;;;;9.45;69.92;99243.59;4953069;29;20094;-71
2020/12/20 14:38:39;;;;;;;12.20;7.57;;;;;;;9.44;69.78;99241.88;4966165;28;20392;-72
2020/12/20 14:41:09;;;;;;;12.90;8.43;;;;;;;9.38;70.05;99241.94;4955663;28;20038;-71
2020/12/20 14:43:34;;;;;;;15.20;8.73;;;;;;;9.31;70.36;99245.41;4965486;28;20036;-70
2020/12/20 14:46:00;;;;;;;14.13;8.55;;;;;;;9.19;71.04;99241.16;4952756;29;20081;-70
2020/12/20 14:48:25;;;;;;;11.38;8.15;;;;;;;9.16;71.00;99245.47;4959929;28;20027;-70
2020/12/20 14:50:50;;;;;;;13.60;7.95;;;;;;;9.12;70.86;99248.94;4952689;28;20038;-70
2020/12/20 14:53:16;;;;;;;14.68;8.52;;;;;;;9.07;70.93;99253.28;4952686;29;20035;-70
2020/12/20 14:55:41;;;;;;;18.00;8.60;;;;;;;9.06;71.33;99260.16;4959179;28;20038;-69
2020/12/20 14:58:06;;;;;;;18.15;8.88;;;;;;;9.02;71.68;99264.47;4972175;28;20027;-71
2020/12/20 15:00:32;;;;;;;16.15;8.77;;;;;;;9.01;71.26;99270.53;4971909;28;20564;-76
2020/12/20 15:02:57;;;;;;;14.95;8.75;;;;;;;9.01;71.47;99261.91;4971970;28;20026;-75
2020/12/20 15:05:22;;;;;;;12.73;8.20;;;;;;;9.01;71.61;99256.75;4972054;28;20023;-74
2020/12/20 15:07:49;;;;;;;14.95;9.20;;;;;;;8.91;73.42;99271.44;4972096;28;20025;-68
2020/12/20 15:10:14;;;;;;;20.70;10.32;;;;;;;8.89;73.65;99267.97;4970570;28;20506;-72
2020/12/20 15:12:43;;;;;;;15.68;10.15;;;;;;;8.85;74.72;99276.63;4971894;28;20039;-67
2020/12/20 15:15:09;;;;;;;16.98;10.50;;;;;;;8.79;74.30;99276.63;4971854;28;20466;-73
2020/12/20 15:17:34;;;;;;;17.42;11.77;;;;;;;8.70;75.38;99271.47;4972010;28;20102;-72
2020/12/20 15:20:02;;;;;;;16.42;11.18;;;;;;;8.62;76.06;99274.09;4970969;28;20033;-70
2020/12/20 15:22:28;;;;;;;25.40;15.85;;;;;;;8.51;76.52;99270.69;4971854;28;20077;-71
2020/12/20 15:24:53;;;;;;;45.63;24.20;;;;;;;8.48;77.15;99271.53;4972189;28;20031;-72
2020/12/20 15:27:18;;;;;;;50.35;24.90;;;;;;;8.45;77.17;99274.09;4973952;28;20373;-74
2020/12/20 15:29:44;;;;;;;39.67;22.00;;;;;;;8.34;77.62;99274.97;4974419;28;20434;-70
2020/12/20 15:32:09;;;;;;;27.13;15.73;;;;;;;8.29;77.36;99287.88;4975242;28;20077;-70
2020/12/20 15:34:34;;;;;;;22.98;13.68;;;;;;;8.27;77.15;99281.88;4974291;28;20484;-73
2020/12/20 15:37:00;;;;;;;30.23;13.38;;;;;;;8.25;77.61;99287.00;4975544;28;20030;-77
2020/12/20 15:39:26;;;;;;;16.30;10.23;;;;;;;8.19;77.74;99283.56;4975459;28;20030;-74
2020/12/20 15:41:52;;;;;;;18.27;11.60;;;;;;;8.15;77.78;99287.00;4975142;28;20476;-76
2020/12/20 15:44:19;;;;;;;20.63;11.98;;;;;;;8.20;77.23;99296.47;4975362;28;20035;-73
2020/12/20 15:46:44;;;;;;;30.08;17.77;;;;;;;8.16;77.52;99288.72;4975038;28;20027;-74
2020/12/20 15:49:10;;;;;;;25.35;16.30;;;;;;;8.08;78.10;99291.31;4975245;28;20030;-74
2020/12/20 15:51:35;;;;;;;18.95;11.48;;;;;;;8.12;77.93;99299.91;4975106;28;20037;-73
2020/12/20 15:54:01;;;;;;;18.00;11.07;;;;;;;8.13;78.01;99301.66;4957919;28;20387;-70
2020/12/20 15:56:26;;;;;;;19.80;11.50;;;;;;;8.08;78.25;99305.97;4974018;28;20469;-70
2020/12/20 15:58:51;;;;;;;20.73;10.05;;;;;;;8.05;78.72;99308.53;4974923;28;20100;-70
2020/12/20 16:01:23;;;;;;;14.50;10.50;;;;;;;8.02;78.83;99311.09;4974738;28;20027;-76
2020/12/20 16:03:48;;;;;;;16.38;10.77;;;;;;;7.99;79.22;99312.81;4974936;28;20031;-70
2020/12/20 16:06:13;;;;;;;17.92;11.10;;;;;;;7.99;79.88;99317.97;4975145;28;20034;-69
2020/12/20 16:08:38;;;;;;;14.82;9.30;;;;;;;7.98;79.83;99316.25;4973549;28;20030;-71
2020/12/20 16:11:04;;;;;;;15.25;9.52;;;;;;;7.99;80.05;99311.97;4974631;28;20027;-73
2020/12/20 16:13:29;;;;;;;18.23;9.65;;;;;;;7.89;80.56;99321.41;4974793;28;20066;-69
2020/12/20 16:15:54;;;;;;;13.35;9.57;;;;;;;7.90;80.90;99333.44;4974813;28;20029;-69
2020/12/20 16:18:25;;;;;;;16.40;9.50;;;;;;;7.78;81.24;99323.09;4974684;28;20022;-71
2020/12/20 16:20:50;;;;;;;14.95;9.32;;;;;;;7.83;81.39;99326.56;4974480;28;20027;-68
2020/12/20 16:23:16;;;;;;;22.67;10.73;;;;;;;7.78;81.48;99333.41;4974517;28;20038;-69
2020/12/20 16:25:41;;;;;;;19.17;10.43;;;;;;;7.87;81.40;99338.59;4974411;28;20042;-71
2020/12/20 16:28:06;;;;;;;22.27;11.15;;;;;;;7.89;81.24;99347.22;4974575;28;20023;-69
2020/12/20 16:30:32;;;;;;;16.42;10.77;;;;;;;7.71;81.49;99354.91;4956958;28;20480;-71
2020/12/20 16:32:57;;;;;;;19.33;12.15;;;;;;;7.86;81.38;99362.69;4974491;28;20031;-69
2020/12/20 16:35:22;;;;;;;17.38;12.27;;;;;;;8.04;80.16;99368.75;4974390;28;20034;-67
2020/12/20 16:37:48;;;;;;;24.58;12.05;;;;;;;8.11;79.72;99375.63;4973344;28;20027;-68
2020/12/20 16:40:14;;;;;;;25.77;13.40;;;;;;;8.35;78.53;99375.66;4974038;28;20081;-70
2020/12/20 16:42:40;;;;;;;32.78;17.60;;;;;;;8.54;77.83;99383.44;4974342;28;20109;-70
2020/12/20 16:45:05;;;;;;;22.38;12.35;;;;;;;8.47;78.54;99383.44;4956920;28;20476;-78
2020/12/20 16:47:31;;;;;;;41.50;22.65;;;;;;;8.48;78.42;99377.41;4974311;28;20037;-69
2020/12/20 16:49:59;;;;;;;25.58;13.73;;;;;;;8.61;78.63;99385.19;4974110;28;20073;-70
2020/12/20 16:52:24;;;;;;;24.98;13.80;;;;;;;8.56;78.96;99381.69;4974017;28;20049;-70
2020/12/20 16:54:50;;;;;;;22.35;13.75;;;;;;;8.28;80.11;99381.69;4973914;28;20494;-71
2020/12/20 16:57:15;;;;;;;24.85;13.18;;;;;;;8.11;81.11;99386.81;4973881;28;20030;-71
2020/12/20 16:59:40;;;;;;;25.13;13.65;;;;;;;8.13;81.86;99386.81;4973994;28;20515;-71
2020/12/20 17:02:06;;;;;;;24.15;13.75;;;;;;;8.01;82.36;99392.81;4974142;28;20039;-71
2020/12/20 17:04:31;;;;;;;22.35;14.00;;;;;;;7.92;82.92;99387.63;4974352;28;20031;-72
2020/12/20 17:06:56;;;;;;;22.45;13.45;;;;;;;7.93;82.64;99385.06;4973923;28;20592;-72
2020/12/20 17:09:22;;;;;;;61.83;29.15;;;;;;;7.87;82.96;99379.88;4974005;28;20027;-69
2020/12/20 17:11:49;;;;;;;35.22;20.23;;;;;;;7.84;83.57;99374.72;4959026;28;20023;-69
2020/12/20 17:14:14;;;;;;;23.67;15.48;;;;;;;7.82;84.06;99375.56;4973737;28;20440;-70
2020/12/20 17:16:39;;;;;;;26.58;14.95;;;;;;;7.68;85.93;99375.50;4973497;28;20093;-71
2020/12/20 17:19:04;;;;;;;34.15;18.15;;;;;;;7.63;85.87;99377.22;4973652;28;20022;-71
2020/12/20 17:21:30;;;;;;;34.25;22.00;;;;;;;7.73;85.39;99381.53;4973229;28;20031;-72
2020/12/20 17:23:55;;;;;;;37.00;22.50;;;;;;;7.70;85.63;99376.41;4973749;28;20396;-71
2020/12/20 17:26:22;;;;;;;40.08;25.23;;;;;;;7.62;86.46;99385.81;4973522;28;20026;-71
2020/12/20 17:28:48;;;;;;;38.83;26.13;;;;;;;7.67;86.20;99386.69;4973368;28;20033;-71
2020/12/20 17:31:18;;;;;;;44.38;25.83;;;;;;;7.58;86.79;99386.66;4973147;28;20047;-71
2020/12/20 17:33:44;;;;;;;34.42;21.58;;;;;;;7.61;86.60;99386.69;4973323;28;20023;-71
2020/12/20 17:36:13;;;;;;;41.08;24.40;;;;;;;7.67;86.67;99397.88;4973434;28;20077;-72
2020/12/20 17:38:40;;;;;;;33.42;22.42;;;;;;;7.68;86.50;99388.41;4973265;28;20094;-71
2020/12/20 17:41:05;;;;;;;32.60;20.80;;;;;;;7.54;87.09;99403.81;4973268;28;20054;-72
2020/12/20 17:43:30;;;;;;;36.42;21.17;;;;;;;7.58;86.81;99395.25;4973095;28;20065;-71
2020/12/20 17:45:56;;;;;;;35.00;20.55;;;;;;;7.44;87.83;99395.19;4973016;28;20026;-72
2020/12/20 17:48:21;;;;;;;31.63;18.95;;;;;;;7.55;87.85;99394.41;4972680;28;20061;-72
2020/12/20 17:50:46;;;;;;;31.10;19.40;;;;;;;7.41;88.09;99402.94;4971332;28;20019;-71
2020/12/20 17:53:12;;;;;;;32.95;21.13;;;;;;;7.52;87.82;99396.94;4972826;28;20023;-71
2020/12/20 17:55:37;;;;;;;33.75;17.45;;;;;;;7.58;86.90;99396.97;4972943;28;20035;-71
2020/12/20 17:58:02;;;;;;;25.30;14.70;;;;;;;7.56;87.30;99393.53;4972818;28;20195;-71
2020/12/20 18:00:28;;;;;;;32.83;19.58;;;;;;;7.57;87.35;99390.09;4972588;28;20113;-72
2020/12/20 18:02:53;;;;;;;38.03;21.42;;;;;;;7.54;88.23;99390.94;4972710;28;20038;-71
2020/12/20 18:05:18;;;;;;;39.20;21.70;;;;;;;7.55;88.03;99400.41;4972661;28;20066;-71
2020/12/20 18:07:44;;;;;;;45.85;24.92;;;;;;;7.60;87.93;99400.44;4972623;28;20026;-72
2020/12/20 18:10:09;;;;;;;33.95;20.52;;;;;;;7.66;88.00;99405.59;4972737;28;20050;-72
2020/12/20 18:12:34;;;;;;;37.00;19.70;;;;;;;7.55;88.32;99412.44;4972577;28;20536;-72
2020/12/20 18:15:00;;;;;;;30.70;17.95;;;;;;;7.48;88.45;99407.25;4972599;28;20517;-71
2020/12/20 18:17:25;;;;;;;24.85;15.88;;;;;;;7.55;88.33;99409.88;4972781;28;20061;-71
2020/12/20 18:19:51;;;;;;;32.72;19.75;;;;;;;7.59;88.27;99414.16;4972553;28;20706;-71
2020/12/20 18:22:16;;;;;;;39.60;25.35;;;;;;;7.76;87.59;99407.38;4972308;28;20616;-72
2020/12/20 18:24:41;;;;;;;32.92;17.33;;;;;;;7.70;87.16;99417.66;4955273;28;20042;-71
2020/12/20 18:27:09;;;;;;;32.58;17.52;;;;;;;7.64;87.25;99417.63;4972319;28;20033;-71
2020/12/20 18:29:34;;;;;;;34.20;19.33;;;;;;;7.59;88.30;99425.38;4972453;28;20062;-71